Terminal Aerodrome Forecast
Issued by NWS Blacksburg, VA

Home | Current Version | Previous Version | Text Only | Print | Product List | Glossary On
Versions: 1 2 3 4 5 6 7 8 9 10 11 12 13 14 15 16 17 18 19 20 21 22 23 24 25 26
000
FTUS41 KRNK 012330
TAFBLF
TAF
KBLF 012330Z 0200/0224 VRB03KT P6SM FEW070
     FM020100 00000KT P6SM SKC
     FM020800 VRB03KT 4SM BR SKC
     FM021400 28005KT P6SM SKC=

USA.gov is the U.S. government's official web portal to all federal, state and local government web resources and services.